Time;durP1;ratioP1;P1;durP2;ratioP2;P2;SDS_P1;SDS_P2;PMS_P1;PMS_P2;Temp;Humidity;BMP_temperature;BMP_pressure;BME280_temperature;BME280_humidity;BME280_pressure;Samples;Min_cycle;Max_cycle;Signal;HPM_P1;HPM_P2
2021/10/27 00:00:20;;;;;;;12.20;6.60;;;;;;;11.41;79.42;100666.22;5033646;28;20052;-62
2021/10/27 00:03:05;;;;;;;8.00;5.65;;;;;;;11.42;79.15;100673.16;5034053;28;20067;-62
2021/10/27 00:05:49;;;;;;;10.20;6.03;;;;;;;11.43;79.23;100673.19;5033527;28;20416;-63
2021/10/27 00:08:33;;;;;;;8.48;5.65;;;;;;;11.42;79.17;100666.22;5033957;28;20183;-63
2021/10/27 00:11:18;;;;;;;6.50;4.72;;;;;;;11.42;79.25;100668.81;5033705;28;20049;-63
2021/10/27 00:14:02;;;;;;;11.00;6.38;;;;;;;11.42;79.32;100668.81;5033229;28;20052;-63
2021/10/27 00:16:46;;;;;;;10.90;5.60;;;;;;;11.42;79.18;100674.00;5033488;28;20048;-63
2021/10/27 00:19:30;;;;;;;;;;;;;;;11.41;78.99;100666.22;5033916;28;20095;-63
2021/10/27 00:22:15;;;;;;;9.85;5.70;;;;;;;11.39;79.30;100665.28;5033557;28;20383;-63
2021/10/27 00:24:59;;;;;;;;;;;;;;;11.39;79.52;100667.88;5018895;28;20644;-63
2021/10/27 00:27:43;;;;;;;11.65;5.95;;;;;;;11.38;79.07;100663.53;5033220;28;19935;-62
2021/10/27 00:30:27;;;;;;;;;;;;;;;11.38;79.08;100668.72;5033666;28;20140;-63
2021/10/27 00:33:11;;;;;;;10.18;5.88;;;;;;;11.38;79.34;100671.31;5033367;28;20050;-63
2021/10/27 00:35:55;;;;;;;12.25;6.38;;;;;;;11.38;79.02;100667.00;5033395;28;20467;-63
2021/10/27 00:38:39;;;;;;;8.88;5.75;;;;;;;11.39;79.21;100670.47;5033318;28;20075;-62
2021/10/27 00:41:23;;;;;;;12.90;7.20;;;;;;;11.37;79.23;100661.78;5033665;28;20096;-63
2021/10/27 00:44:17;;;;;;;12.55;7.15;;;;;;;11.37;79.64;100667.84;5033294;28;20519;-63
2021/10/27 00:47:04;;;;;;;10.20;6.72;;;;;;;11.38;79.54;100666.13;5018661;28;20044;-63
2021/10/27 00:49:48;;;;;;;9.57;6.53;;;;;;;11.38;79.16;100658.34;5017840;28;20164;-63
2021/10/27 00:52:33;;;;;;;;;;;;;;;11.37;79.09;100662.66;5033656;28;20056;-62
2021/10/27 00:55:17;;;;;;;11.05;6.10;;;;;;;11.38;79.40;100666.13;5032722;28;20408;-62
2021/10/27 00:58:01;;;;;;;10.68;6.20;;;;;;;11.36;79.24;100666.09;5033322;28;20103;-63
2021/10/27 01:00:48;;;;;;;9.25;6.95;;;;;;;11.35;79.20;100664.34;5018120;28;20048;-62
2021/10/27 01:03:35;;;;;;;12.15;6.25;;;;;;;11.36;79.08;100653.13;5017940;28;20064;-63
2021/10/27 01:06:20;;;;;;;13.65;7.28;;;;;;;11.36;79.26;100647.94;5018623;28;20100;-63
2021/10/27 01:09:04;;;;;;;9.85;6.75;;;;;;;11.36;79.52;100647.94;5033397;28;20061;-63
2021/10/27 01:11:49;;;;;;;11.02;7.35;;;;;;;11.36;79.41;100655.72;5035056;28;20044;-62
2021/10/27 01:14:41;;;;;;;14.20;6.72;;;;;;;11.35;79.70;100656.56;5037123;28;20087;-63
2021/10/27 01:17:25;;;;;;;9.85;7.22;;;;;;;11.35;79.39;100661.75;5021396;28;20052;-63
2021/10/27 01:20:10;;;;;;;10.63;7.75;;;;;;;11.34;79.70;100657.41;5021458;28;20044;-63
2021/10/27 01:22:54;;;;;;;12.32;7.25;;;;;;;11.35;79.59;100656.56;5021849;28;20123;-63
2021/10/27 01:25:38;;;;;;;10.07;7.18;;;;;;;11.34;79.55;100657.41;5036921;28;20129;-63
2021/10/27 01:28:22;;;;;;;10.55;6.95;;;;;;;11.33;79.23;100658.25;5021448;28;20129;-63
2021/10/27 01:31:06;;;;;;;11.80;7.32;;;;;;;11.32;79.18;100645.22;5036795;28;20408;-63
2021/10/27 01:33:51;;;;;;;14.90;8.48;;;;;;;11.31;79.44;100652.16;5021174;28;20130;-63
2021/10/27 01:36:34;;;;;;;11.75;7.57;;;;;;;11.30;79.53;100645.19;5036706;28;20068;-63
2021/10/27 01:39:19;;;;;;;12.15;8.10;;;;;;;11.31;79.58;100646.06;5021900;28;20048;-63
2021/10/27 01:42:03;;;;;;;;;;;;;;;11.29;79.38;100643.44;5022015;28;20439;-63
2021/10/27 01:44:47;;;;;;;14.73;8.43;;;;;;;11.28;79.74;100641.69;5036159;28;19920;-63
2021/10/27 01:47:31;;;;;;;15.27;8.05;;;;;;;11.30;79.93;100646.91;5021987;28;20468;-63
2021/10/27 01:50:15;;;;;;;13.27;8.25;;;;;;;11.29;79.42;100637.41;5035947;28;20068;-63
2021/10/27 01:52:59;;;;;;;;;;;;;;;11.27;79.75;100630.44;5021416;28;20049;-63
2021/10/27 01:55:43;;;;;;;14.35;8.00;;;;;;;11.27;79.55;100629.56;5035760;28;19962;-63
2021/10/27 01:58:27;;;;;;;21.13;8.98;;;;;;;11.27;79.76;100627.84;5036296;28;20049;-63
2021/10/27 02:01:11;;;;;;;13.52;8.45;;;;;;;11.29;79.41;100625.28;5035762;28;20064;-63
2021/10/27 02:03:55;;;;;;;17.60;8.65;;;;;;;11.26;79.76;100628.69;5036163;28;20049;-63
2021/10/27 02:06:39;;;;;;;14.05;8.90;;;;;;;11.27;79.46;100629.56;5035921;28;20156;-63
2021/10/27 02:09:23;;;;;;;19.67;9.75;;;;;;;11.26;79.76;100613.13;5035708;28;20044;-63
2021/10/27 02:12:07;;;;;;;;;;;;;;;11.25;79.67;100620.84;5021016;28;20583;-63
2021/10/27 02:14:51;;;;;;;12.68;8.70;;;;;;;11.25;79.87;100613.06;5035596;28;19924;-62
2021/10/27 02:17:36;;;;;;;17.25;9.45;;;;;;;11.26;79.61;100617.41;5035673;28;20053;-63
2021/10/27 02:20:24;;;;;;;13.35;8.60;;;;;;;11.25;79.88;100618.25;5020850;28;20060;-63
2021/10/27 02:23:08;;;;;;;14.48;8.88;;;;;;;11.23;79.51;100620.84;5020082;28;20076;-62
2021/10/27 02:25:52;;;;;;;17.77;9.13;;;;;;;11.24;79.50;100620.00;5035312;28;20080;-63
2021/10/27 02:28:35;;;;;;;16.17;9.82;;;;;;;11.25;79.80;100624.34;5035378;28;20091;-63
2021/10/27 02:31:20;;;;;;;13.40;9.48;;;;;;;11.25;79.74;100623.44;5035136;28;20059;-63
2021/10/27 02:34:04;;;;;;;13.05;8.32;;;;;;;11.24;79.60;100630.38;5020212;28;20064;-63
2021/10/27 02:36:49;;;;;;;17.17;8.55;;;;;;;11.24;79.92;100627.78;5035372;28;20045;-63
2021/10/27 02:39:33;;;;;;;14.07;9.63;;;;;;;11.24;79.81;100627.78;5034747;28;20117;-63
2021/10/27 02:42:17;;;;;;;21.30;10.10;;;;;;;11.23;79.92;100630.31;5035459;28;20040;-63
2021/10/27 02:45:01;;;;;;;23.63;10.82;;;;;;;11.23;80.00;100626.03;5035372;28;20083;-63
2021/10/27 02:47:45;;;;;;;21.42;10.20;;;;;;;11.22;79.87;100632.06;5034882;28;20543;-63
2021/10/27 02:50:29;;;;;;;16.77;10.50;;;;;;;11.22;79.78;100629.47;5035208;28;20507;-63
2021/10/27 02:53:13;;;;;;;16.95;10.18;;;;;;;11.21;80.00;100630.28;5034725;28;20568;-63
2021/10/27 02:55:57;;;;;;;17.30;10.68;;;;;;;11.22;79.61;100629.47;5034539;28;20048;-62
2021/10/27 02:58:42;;;;;;;13.15;9.82;;;;;;;11.23;80.14;100632.91;5035112;28;20048;-63
2021/10/27 03:01:25;;;;;;;20.42;10.18;;;;;;;11.21;79.85;100632.88;5019497;28;20101;-62
2021/10/27 03:04:09;;;;;;;20.00;10.65;;;;;;;11.21;79.92;100635.47;5034632;28;20563;-63
2021/10/27 03:06:53;;;;;;;15.90;9.85;;;;;;;11.22;80.05;100636.34;5034979;28;20049;-62
2021/10/27 03:09:37;;;;;;;19.77;10.20;;;;;;;11.20;79.99;100631.13;5020007;28;20052;-63
2021/10/27 03:12:21;;;;;;;14.13;9.63;;;;;;;11.19;80.14;100631.97;5034725;28;20053;-63
2021/10/27 03:15:06;;;;;;;17.17;9.45;;;;;;;11.20;80.00;100635.47;5034802;28;20053;-63
2021/10/27 03:17:50;;;;;;;24.33;10.68;;;;;;;11.21;80.03;100639.81;5019694;28;20102;-63
2021/10/27 03:20:34;;;;;;;20.10;10.68;;;;;;;11.21;80.10;100637.22;5034081;28;20079;-62
2021/10/27 03:23:19;;;;;;;16.77;9.75;;;;;;;11.21;80.03;100642.41;5019710;28;20049;-62
2021/10/27 03:26:02;;;;;;;21.60;10.25;;;;;;;11.21;80.17;100639.81;5034248;28;20052;-63
2021/10/27 03:28:47;;;;;;;18.42;9.93;;;;;;;11.20;80.05;100640.66;5034335;28;20048;-63
2021/10/27 03:31:31;;;;;;;;;;;;;;;11.20;80.29;100643.25;5034935;28;20052;-63
2021/10/27 03:34:15;;;;;;;15.68;9.38;;;;;;;11.19;79.78;100642.34;5033169;28;19944;-63
2021/10/27 03:36:59;;;;;;;23.67;9.77;;;;;;;11.20;79.98;100651.03;5033966;28;20049;-63
2021/10/27 03:39:43;;;;;;;15.32;10.02;;;;;;;11.21;80.06;100665.75;5034367;28;20052;-63
2021/10/27 03:42:27;;;;;;;15.90;10.20;;;;;;;11.22;80.02;100668.38;5033874;28;20596;-63
2021/10/27 03:45:12;;;;;;;12.23;9.68;;;;;;;11.20;80.25;100659.69;5018974;28;20044;-63
2021/10/27 03:47:56;;;;;;;;;;;;;;;11.21;80.38;100656.25;5034077;28;20091;-62
2021/10/27 03:50:40;;;;;;;13.13;8.77;;;;;;;11.19;79.74;100651.88;5033925;28;20289;-63
2021/10/27 03:53:25;;;;;;;16.58;10.38;;;;;;;11.20;80.00;100648.44;5034013;28;20055;-63
2021/10/27 03:56:09;;;;;;;23.98;10.73;;;;;;;11.21;80.10;100651.06;5033621;28;20045;-63
2021/10/27 03:58:53;;;;;;;19.13;11.27;;;;;;;11.20;80.38;100651.03;5033296;28;20115;-63
2021/10/27 04:01:36;;;;;;;15.23;10.35;;;;;;;11.21;80.20;100656.25;5033567;28;20056;-62
2021/10/27 04:04:20;;;;;;;17.63;10.98;;;;;;;11.21;80.24;100647.59;5033773;28;20122;-63
2021/10/27 04:07:04;;;;;;;19.70;10.20;;;;;;;11.21;80.20;100651.06;5033271;28;20056;-62
2021/10/27 04:09:48;;;;;;;16.00;10.30;;;;;;;11.21;80.17;100642.41;5033473;28;20068;-63
2021/10/27 04:12:34;;;;;;;14.18;9.80;;;;;;;11.20;80.27;100638.06;5033858;28;20048;-63
2021/10/27 04:15:18;;;;;;;20.27;9.65;;;;;;;11.20;80.04;100644.09;5018547;28;20049;-63
2021/10/27 04:18:02;;;;;;;23.38;10.70;;;;;;;11.18;80.11;100638.00;5018388;28;20471;-63
2021/10/27 04:20:47;;;;;;;15.25;9.27;;;;;;;11.19;80.05;100639.75;5019039;28;20122;-63
2021/10/27 04:23:31;;;;;;;;;;;;;;;11.19;80.22;100644.09;5033624;28;20075;-63
2021/10/27 04:26:15;;;;;;;17.83;11.15;;;;;;;11.16;80.29;100642.28;5033421;28;19923;-62
2021/10/27 04:28:59;;;;;;;21.33;10.65;;;;;;;11.17;80.44;100641.44;5033508;28;20056;-61
2021/10/27 04:31:43;;;;;;;18.30;10.77;;;;;;;11.18;80.07;100655.31;5033468;28;20580;-61
2021/10/27 04:34:26;;;;;;;16.63;9.82;;;;;;;11.17;80.07;100644.03;5033290;28;20041;-61
2021/10/27 04:37:11;;;;;;;22.58;11.35;;;;;;;11.15;80.16;100643.13;5032887;28;20562;-61
2021/10/27 04:39:55;;;;;;;;;;;;;;;11.16;80.06;100644.88;5033745;28;20056;-62
2021/10/27 04:42:39;;;;;;;20.55;10.82;;;;;;;11.15;80.19;100647.44;5033175;28;19995;-61
2021/10/27 04:45:24;;;;;;;15.40;10.18;;;;;;;11.15;80.34;100652.63;5035065;28;20052;-61
2021/10/27 04:48:08;;;;;;;13.57;9.13;;;;;;;11.14;80.17;100646.53;5022793;28;20469;-63
2021/10/27 04:50:52;;;;;;;16.15;9.23;;;;;;;11.14;80.50;100645.69;5036947;28;20128;-63
2021/10/27 04:53:36;;;;;;;16.80;10.13;;;;;;;11.14;80.44;100643.09;5037188;28;20052;-63
2021/10/27 04:56:21;;;;;;;13.57;9.00;;;;;;;11.14;80.40;100632.72;5022122;28;20415;-63
2021/10/27 04:59:05;;;;;;;17.52;9.32;;;;;;;11.12;79.97;100649.13;5037311;28;20047;-63
2021/10/27 05:01:49;;;;;;;13.93;9.30;;;;;;;11.12;80.08;100640.47;5037107;28;20416;-63
2021/10/27 05:04:33;;;;;;;21.70;9.93;;;;;;;11.12;79.88;100650.84;5022529;28;20130;-63
2021/10/27 05:07:18;;;;;;;16.65;9.63;;;;;;;11.12;80.52;100648.25;5022068;28;20052;-63
2021/10/27 05:10:03;;;;;;;12.50;8.68;;;;;;;11.11;79.97;100642.19;5021672;28;20080;-63
2021/10/27 05:12:47;;;;;;;15.70;10.40;;;;;;;11.11;80.43;100651.69;5022057;28;20076;-62
2021/10/27 05:15:31;;;;;;;12.02;8.57;;;;;;;11.10;79.93;100644.75;5036986;28;20137;-63
2021/10/27 05:18:16;;;;;;;13.18;8.73;;;;;;;11.08;80.14;100647.28;5036564;28;20103;-63
2021/10/27 05:21:00;;;;;;;13.00;8.50;;;;;;;11.10;80.08;100639.56;5022253;28;20052;-63
2021/10/27 05:23:44;;;;;;;22.48;10.30;;;;;;;11.08;80.27;100629.13;5036870;28;20151;-63
2021/10/27 05:26:28;;;;;;;12.27;9.20;;;;;;;11.08;79.92;100644.69;5036623;28;20091;-63
2021/10/27 05:29:11;;;;;;;14.07;8.48;;;;;;;11.08;80.09;100643.81;5021470;28;20056;-63
2021/10/27 05:31:56;;;;;;;14.77;8.88;;;;;;;11.09;80.39;100650.78;5036157;28;20600;-63
2021/10/27 05:34:45;;;;;;;12.57;9.25;;;;;;;11.07;80.02;100647.25;5036771;28;20039;-63
2021/10/27 05:37:29;;;;;;;15.93;8.98;;;;;;;11.08;80.04;100646.44;5021139;28;20055;-63
2021/10/27 05:40:13;;;;;;;13.40;9.18;;;;;;;11.08;80.12;100638.63;5036677;28;20195;-63
2021/10/27 05:42:57;;;;;;;15.57;8.45;;;;;;;11.08;80.08;100634.31;5021617;28;20083;-62
2021/10/27 05:45:42;;;;;;;;;;;;;;;11.07;80.59;100644.66;5021474;28;20044;-63
2021/10/27 05:48:30;;;;;;;;;;;;;;;11.06;80.43;100648.09;5036480;28;19970;-63
2021/10/27 05:51:21;;;;;;;;;;;;;;;11.06;80.34;100643.78;5036833;28;20311;-63
2021/10/27 05:57:08;;;;;;;;;;;;;;;11.08;80.13;100646.44;5035571;28;19924;-63
2021/10/27 05:59:52;;;;;;;;;;;;;;;11.09;80.42;100656.81;5035974;28;20375;-63
2021/10/27 06:02:36;;;;;;;;;;;;;;;11.10;80.17;100652.53;5021228;28;20304;-63
2021/10/27 06:05:20;;;;;;;;;;;;;;;11.08;80.56;100649.88;5036676;28;20479;-63
2021/10/27 06:08:05;;;;;;;;;;;;;;;11.10;80.12;100645.59;5035954;28;20031;-63
2021/10/27 06:10:54;;;;;;;;;;;;;;;11.10;80.11;100644.75;5021002;28;19923;-63
2021/10/27 06:13:44;;;;;;;;;;;;;;;11.09;80.51;100643.84;5021122;28;19923;-63
2021/10/27 06:16:28;;;;;;;;;;;;;;;11.11;79.99;100649.09;5021541;28;19963;-63
2021/10/27 06:19:12;;;;;;;;;;;;;;;11.10;80.14;100653.38;5036345;28;20394;-63
2021/10/27 06:21:56;;;;;;;;;;;;;;;11.10;80.07;100647.34;5036332;28;20047;-63
2021/10/27 06:24:40;;;;;;;;;;;;;;;11.10;80.38;100658.59;5020984;28;20024;-63
2021/10/27 06:27:24;;;;;;;;;;;;;;;11.10;80.00;100643.00;5020475;28;20015;-64
2021/10/27 06:33:00;;;;;;;;;;;;;;;11.12;80.39;100661.22;5035905;28;19924;-63
2021/10/27 06:35:46;;;;;;;;;;;;;;;11.12;80.09;100666.41;5035763;28;19943;-63
2021/10/27 06:47:25;;;;;;;;;;;;;;;11.12;80.37;100675.06;5035318;28;19971;-63
2021/10/27 06:50:09;;;;;;;;;;;;;;;11.14;80.33;100669.03;5020822;28;19924;-63
2021/10/27 06:52:54;;;;;;;;;;;;;;;11.14;80.16;100671.63;5020448;28;20090;-63
2021/10/27 06:55:40;;;;;;;;;;;;;;;11.15;80.19;100673.38;5034999;28;20398;-63
2021/10/27 06:58:25;;;;;;;;;;;;;;;11.14;80.07;100680.28;5020456;28;19967;-63
2021/10/27 07:01:13;;;;;;;;;;;;;;;11.16;80.23;100675.13;5020135;28;19928;-63
2021/10/27 07:15:35;;;;;;;;;;;;;;;11.18;80.46;100684.69;5035246;28;19979;-63
2021/10/27 07:18:18;;;;;;;;;;;;;;;11.18;80.26;100671.72;5020120;28;19924;-64
2021/10/27 07:21:03;;;;;;;;;;;;;;;11.20;80.29;100682.16;5034527;28;19924;-62
2021/10/27 07:23:48;;;;;;;;;;;;;;;11.20;80.30;100682.16;5020181;28;20027;-61
2021/10/27 07:26:32;;;;;;;;;;;;;;;11.21;80.27;100679.59;5034864;28;19978;-64
2021/10/27 07:29:19;;;;;;;;;;;;;;;11.20;80.33;100688.22;5034503;28;19928;-63
2021/10/27 07:32:05;;;;;;;;;;;;;;;11.22;80.18;100685.66;5019546;28;19939;-63
2021/10/27 07:34:54;;;;;;;;;;;;;;;11.24;79.79;100690.06;5019665;28;19967;-63
2021/10/27 07:40:52;;;;;;;;;;;;;;;11.23;80.13;100690.88;5034067;28;19967;-63
2021/10/27 07:43:35;;;;;;;;;;;;;;;11.25;79.81;100690.91;5034171;28;20022;-63
2021/10/27 07:46:19;;;;;;;;;;;;;;;11.26;79.94;100692.66;5034777;28;19923;-63
2021/10/27 07:49:03;;;;;;;;;;;;;;;11.25;80.33;100697.00;5018987;28;19924;-63
2021/10/27 07:51:50;;;;;;;;;;;;;;;11.26;79.87;100698.75;5019833;28;19924;-63
2021/10/27 07:54:34;;;;;;;;;;;;;;;11.26;80.02;100698.75;5034186;28;20012;-63
2021/10/27 07:57:18;;;;;;;;;;;;;;;11.27;79.92;100697.91;5019272;28;20459;-63
2021/10/27 08:00:04;;;;;;;;;;;;;;;11.29;79.93;100703.13;5034306;28;20415;-63
2021/10/27 08:02:48;;;;;;;;;;;;;;;11.29;79.68;100697.94;5018951;28;19924;-63
2021/10/27 08:05:33;;;;;;;;;;;;;;;11.29;79.81;100702.25;5033687;28;19924;-63
2021/10/27 08:08:22;;;;;;;;;;;;;;;11.30;79.79;100706.59;5019605;28;19924;-63
2021/10/27 08:11:08;;;;;;;;;;;;;;;11.31;80.13;100713.53;5019351;28;19967;-63
2021/10/27 08:13:52;;;;;;;;;;;;;;;11.31;80.03;100708.34;5019109;28;19966;-63
2021/10/27 08:16:36;;;;;;;;;;;;;;;11.32;79.65;100707.50;5033811;28;19923;-63
2021/10/27 08:19:26;;;;;;;;;;;;;;;11.32;79.88;100704.91;5018195;28;20008;-63
2021/10/27 08:22:11;;;;;;;;;;;;;;;11.33;79.98;100704.97;5019347;28;19924;-63
2021/10/27 08:24:55;;;;;;;;;;;;;;;11.34;80.15;100709.31;5033535;28;19939;-63
2021/10/27 08:27:41;;;;;;;;;;;;;;;11.34;79.82;100716.19;5033959;28;19924;-63
2021/10/27 08:30:34;;;;;;;;;;;;;;;11.36;79.79;100717.13;5019353;28;19967;-63
2021/10/27 08:33:35;;;;;;;;;;;;;;;11.37;79.80;100709.34;5018442;28;19967;-62
2021/10/27 08:36:19;;;;;;;;;;;;;;;11.37;79.65;100709.34;5033623;28;19966;-63
2021/10/27 08:39:04;;;;;;;;;;;;;;;11.39;79.59;100715.47;5034095;28;19967;-63
2021/10/27 08:41:48;;;;;;;;;;;;;;;11.41;79.74;100708.59;5018833;28;20343;-63
2021/10/27 08:44:33;;;;;;;;;;;;;;;11.43;79.94;100719.03;5018531;28;19924;-63
2021/10/27 08:47:20;;;;;;;;;;;;;;;11.45;79.94;100724.25;5019099;28;19924;-63
2021/10/27 08:50:04;;;;;;;;;;;;;;;11.47;79.92;100720.84;5033701;28;19924;-63
2021/10/27 08:52:49;;;;;;;;;;;;;;;11.48;80.06;100712.22;5018795;28;19940;-63
2021/10/27 08:55:33;;;;;;;;;;;;;;;11.51;79.97;100721.81;5019059;28;19923;-63
2021/10/27 08:58:31;;;;;;;;;;;;;;;11.52;79.54;100724.41;5018823;28;19970;-63
2021/10/27 09:01:28;;;;;;;;;;;;;;;11.56;79.84;100725.38;5018180;28;19967;-63
2021/10/27 09:37:21;;;;;;;;;;;;;;;11.86;79.28;100735.56;5036842;28;19943;-63
2021/10/27 09:43:03;;;;;;;;;;;;;;;11.90;79.22;100743.44;5036463;28;19923;-63
2021/10/27 10:06:57;;;;;;;;;;;;;;;11.98;79.34;100744.47;5036328;28;20379;-62
2021/10/27 10:09:43;;;;;;;;;;;;;;;12.00;79.26;100735.03;5021753;28;20403;-63
2021/10/27 10:12:27;;;;;;;;;;;;;;;12.01;78.99;100741.97;5021463;28;20371;-63
2021/10/27 10:15:11;;;;;;;;;;;;;;;12.01;79.19;100750.63;5036021;28;19924;-63
2021/10/27 10:17:55;;;;;;;;;;;;;;;12.04;79.22;100752.44;5035633;28;19924;-63
2021/10/27 10:20:40;;;;;;;;;;;;;;;12.06;78.92;100742.06;5036181;28;20008;-63
2021/10/27 10:23:25;;;;;;;;;;;;;;;12.08;79.24;100759.44;5035842;28;19962;-63
2021/10/27 10:26:09;;;;;;;;;;;;;;;12.09;79.11;100750.78;5020912;28;20426;-63
2021/10/27 10:28:53;;;;;;;;;;;;;;;12.12;79.24;100753.44;5036035;28;19963;-63
2021/10/27 10:31:38;;;;;;;;;;;;;;;12.13;79.10;100744.81;5036162;28;19924;-63
2021/10/27 10:34:44;;;;;;;;;;;;;;;12.14;78.81;100740.50;5020326;28;20412;-63
2021/10/27 10:37:36;;;;;;;;;;;;;;;12.15;78.83;100743.13;5021003;28;19924;-62
2021/10/27 10:40:30;;;;;;;;;;;;;;;12.16;78.90;100750.09;5021205;28;19971;-62
2021/10/27 10:43:51;;;;;;;;;;;;;;;12.18;78.80;100750.09;5035515;28;19923;-63
2021/10/27 11:02:51;;;;;;;;;;;;;;;12.26;79.08;100740.75;5035104;28;19971;-63
2021/10/27 11:39:10;;;;;;;;;;;;;;;12.49;78.86;100707.41;5034861;28;20422;-63
2021/10/27 11:41:59;;;;;;;;;;;;;;;12.51;78.53;100710.03;5034601;28;20023;-63
2021/10/27 11:45:27;;;;;;;;;;;;;;;12.51;78.69;100702.22;5034100;28;20023;-62
2021/10/27 11:47:53;;;;;;;;;;;;;;;12.53;78.61;100703.13;5034007;28;20316;-62
2021/10/27 11:50:39;;;;;;;;;;;;;;;12.54;78.59;100698.78;5019695;28;19924;-63
2021/10/27 11:53:29;;;;;;;;;;;;;;;12.55;78.84;100687.56;5019085;28;20012;-63
2021/10/27 11:56:14;;;;;;;;;;;;;;;12.54;78.58;100684.09;5018986;28;19923;-63
2021/10/27 11:59:00;;;;;;;;;;;;;;;12.57;78.59;100683.25;5034629;28;19924;-63
2021/10/27 12:01:48;;;;;;;;;;;;;;;12.57;78.59;100694.56;5019542;28;20046;-62
2021/10/27 12:04:33;;;;;;;;;;;;;;;12.59;78.40;100695.47;5019405;28;19923;-63
2021/10/27 12:07:38;;;;;;;;;;;;;;;12.60;78.62;100694.63;5019439;28;19924;-63
2021/10/27 12:10:38;;;;;;;;;;;;;;;12.61;78.52;100691.13;5018992;28;19924;-63
2021/10/27 12:19:18;;;;;;;;;;;;;;;12.64;78.69;100701.59;5033793;28;20036;-63
2021/10/27 12:22:05;;;;;;;;;;;;;;;12.65;78.62;100686.91;5019364;28;19959;-63
2021/10/27 12:24:56;;;;;;;;;;;;;;;12.66;78.55;100690.34;5019304;28;19924;-63
2021/10/27 12:27:43;;;;;;;;;;;;;;;12.65;78.39;100673.88;5033779;28;19940;-63
2021/10/27 12:30:34;;;;;;;;;;;;;;;12.67;78.47;100669.59;5018999;28;19924;-62
2021/10/27 12:33:34;;;;;;;;;;;;;;;12.67;78.51;100674.78;5033964;28;19944;-62
2021/10/27 12:36:27;;;;;;;;;;;;;;;12.68;78.21;100663.53;5033480;28;19986;-63
2021/10/27 12:39:36;;;;;;;;;;;;;;;12.68;78.35;100660.94;5033598;28;20335;-63
2021/10/27 12:42:17;;;;;;;;;;;;;;;12.69;78.46;100665.28;5033570;28;20369;-63
2021/10/27 12:45:02;;;;;;;;;;;;;;;12.71;78.18;100662.72;5033845;28;19963;-63
2021/10/27 12:47:46;;;;;;;;;;;;;;;12.71;78.41;100658.38;5018592;28;20020;-63
2021/10/27 12:50:30;;;;;;;;;;;;;;;12.73;78.29;100650.63;5033702;28;19924;-63
2021/10/27 12:53:15;;;;;;;;;;;;;;;12.73;78.21;100648.00;5033779;28;19924;-63
2021/10/27 12:56:07;;;;;;;;;;;;;;;12.73;78.15;100656.69;5018242;28;19947;-63
2021/10/27 12:59:03;;;;;;;;;;;;;;;12.73;78.20;100650.63;5033654;28;19924;-63
2021/10/27 13:01:49;;;;;;;;;;;;;;;12.74;78.55;100641.97;5018700;28;19924;-63
2021/10/27 13:04:40;;;;;;;;;;;;;;;12.73;78.22;100641.06;5018141;28;19971;-63
2021/10/27 13:07:31;;;;;;;;;;;;;;;12.73;78.37;100640.22;5022240;28;20384;-63
2021/10/27 13:10:44;;;;;;;;;;;;;;;12.73;78.32;100642.81;5022856;28;19923;-63
2021/10/27 13:13:37;;;;;;;;;;;;;;;12.73;78.17;100635.00;5022041;28;19923;-63
2021/10/27 13:16:44;;;;;;;;;;;;;;;12.74;78.26;100645.44;5022506;28;19962;-63
2021/10/27 13:31:40;;;;;;;;;;;;;;;12.75;78.10;100636.78;5037328;28;19927;-63
2021/10/27 13:34:24;;;;;;;;;;;;;;;12.75;78.17;100630.72;5021600;28;19923;-63
2021/10/27 13:37:08;;;;;;;;;;;;;;;12.75;78.04;100628.13;5036836;28;19924;-63
2021/10/27 13:39:53;;;;;;;;;;;;;;;12.75;78.05;100628.13;5021759;28;19924;-63
2021/10/27 13:42:44;;;;;;;;;;;;;;;12.75;77.98;100625.50;5036806;28;19964;-63
2021/10/27 13:57:54;;;;;;;;;;;;;;;12.74;78.30;100614.22;5036512;28;19983;-62
2021/10/27 14:06:57;;;;;;;;;;;;;;;12.73;78.07;100612.47;5036615;28;20387;-63
2021/10/27 14:09:49;;;;;;;;;;;;;;;12.73;78.15;100609.00;5022109;28;20396;-62
2021/10/27 14:12:48;;;;;;;;;;;;;;;12.72;78.12;100613.31;5021355;28;19967;-62
2021/10/27 14:40:06;;;;;;;;;;;;;;;12.70;77.85;100598.53;5035968;28;19970;-62
2021/10/27 15:34:04;;;;;;;;;;;;;;;12.62;78.04;100564.63;4995163;28;19925;-63
2021/10/27 15:52:19;;;;;;;;;;;;;;;12.57;77.97;100564.53;4985495;28;19940;-62
2021/10/27 15:55:05;;;;;;;;;;;;;;;12.57;78.09;100563.66;4994808;28;20028;-62
2021/10/27 15:57:49;;;;;;;;;;;;;;;12.56;77.77;100569.69;4994469;28;20048;-63
2021/10/27 16:00:33;;;;;;;;;;;;;;;12.55;77.98;100565.34;4994850;28;19924;-62
2021/10/27 16:03:17;;;;;;;;;;;;;;;12.54;77.70;100561.00;5029651;28;19928;-63
2021/10/27 16:06:02;;;;;;;;;;;;;;;12.53;77.96;100565.34;5034486;28;20383;-63
2021/10/27 16:08:50;;;;;;;;;;;;;;;12.52;77.71;100565.34;5018993;28;20402;-63
2021/10/27 16:11:34;;;;;;;;;;;;;;;12.52;77.77;100570.53;5034084;28;20435;-62
2021/10/27 16:14:21;;;;;;;;;;;;;;;12.49;77.77;100564.44;5018930;28;19924;-63
2021/10/27 16:17:11;;;;;;;;;;;;;;;12.48;77.81;100560.06;5033572;28;20300;-62
2021/10/27 16:19:55;;;;;;;;;;;;;;;12.47;77.83;100552.22;5018725;28;19924;-63
2021/10/27 16:22:39;;;;;;;;;;;;;;;12.46;77.85;100553.97;5033479;28;19968;-62
2021/10/27 16:25:29;;;;;;;;;;;;;;;12.45;77.72;100557.41;5034203;28;19939;-62
2021/10/27 16:28:13;;;;;;;;;;;;;;;12.45;77.99;100557.41;5019481;28;19971;-63
2021/10/27 16:30:57;;;;;;;;;;;;;;;12.44;77.77;100557.41;5033357;28;19944;-63
2021/10/27 16:33:44;;;;;;;;;;;;;;;12.44;77.92;100560.00;5018996;28;20384;-63
2021/10/27 16:36:28;;;;;;;;;;;;;;;12.42;77.82;100553.91;5019182;28;19971;-62
2021/10/27 16:39:12;;;;;;;;;;;;;;;12.42;77.72;100559.09;5018679;28;19924;-62
2021/10/27 16:41:56;;;;;;;;;;;;;;;12.40;78.13;100555.59;5021286;28;19949;-63
2021/10/27 16:44:40;;;;;;;;;;;;;;;12.38;78.02;100558.16;5037381;28;20342;-63
2021/10/27 16:47:24;;;;;;;;;;;;;;;12.38;77.72;100549.50;5023095;28;19970;-63
2021/10/27 16:50:10;;;;;;;;;;;;;;;12.36;77.87;100552.06;5037611;28;19982;-62
2021/10/27 16:52:58;;;;;;;;;;;;;;;12.35;78.10;100552.94;5037419;28;20017;-62
2021/10/27 16:55:41;;;;;;;;;;;;;;;12.34;77.67;100551.16;5022904;28;19963;-63
2021/10/27 16:58:26;;;;;;;;;;;;;;;12.33;77.68;100547.69;5023017;28;19963;-62
2021/10/27 17:01:10;;;;;;;;;;;;;;;12.32;77.57;100553.72;5022455;28;19924;-62
2021/10/27 17:03:54;;;;;;;;;;;;;;;12.31;77.73;100559.78;5022642;28;19924;-63
2021/10/27 17:06:45;;;;;;;;;;;;;;;12.30;77.90;100549.38;5037069;28;20051;-63
2021/10/27 17:09:34;;;;;;;;;;;;;;;12.28;77.83;100548.47;5022062;28;19971;-62
2021/10/27 17:12:18;;;;;;;;;;;;;;;12.27;78.07;100550.19;5022396;28;19923;-63
2021/10/27 17:15:03;;;;;;;;;;;;;;;12.27;77.47;100546.72;5037022;28;19963;-63
2021/10/27 17:17:47;;;;;;;;;;;;;;;12.25;77.91;100549.28;5022223;28;20044;-62
2021/10/27 17:20:31;;;;;;;;;;;;;;;12.23;77.92;100543.19;5022130;28;19923;-63
2021/10/27 17:23:27;;;;;;;;;;;;;;;12.22;77.95;100549.22;5037541;28;20067;-63
2021/10/27 17:26:12;;;;;;;;;;;;;;;12.21;77.57;100544.03;5022054;28;20050;-62
2021/10/27 17:28:57;;;;;;;;;;;;;;;12.20;78.00;100542.28;5022475;28;19924;-62
2021/10/27 17:31:40;;;;;;;;;;;;;;;12.18;78.03;100537.91;5036549;28;19971;-63
2021/10/27 17:34:25;;;;;;;;;;;;;;;12.17;77.55;100536.16;5021437;28;19924;-63
2021/10/27 17:37:10;;;;;;;;;;;;;;;12.16;77.75;100534.41;5037124;28;19971;-63
2021/10/27 17:39:54;;;;;;;;;;;;;;;12.16;77.66;100536.13;5036429;28;19967;-63
2021/10/27 17:42:41;;;;;;;;;;;;;;;12.14;77.82;100533.50;5021618;28;20003;-63
2021/10/27 17:45:35;;;;;;;;;;;;;;;12.14;77.91;100533.50;5021934;28;19962;-63
2021/10/27 18:00:10;;;;;;;;;;;;;;;12.10;77.67;100520.44;5036703;28;19936;-63
2021/10/27 18:02:53;;;;;;;;;;;;;;;12.09;77.44;100522.16;5036394;28;19971;-63
2021/10/27 18:05:37;;;;;;;;;;;;;;;12.07;77.48;100529.03;5036659;28;19923;-63
2021/10/27 18:08:22;;;;;;;;;;;;;;;12.08;77.45;100528.19;5036516;28;19924;-62
2021/10/27 18:11:11;;;;;;;;;;;;;;;12.07;77.76;100530.78;5036554;28;19966;-63